Cornish, Maine
Current Conditions -  °F | °C
As of 10:54 AM on Friday 19 Dec 2014 (Local Time) from KIZG Reporting Station
Clear Clear  
Wind Chill: 31°   Ceiling: Unl
Heat Index: 35°   Visibility: 10mi
Dew Point: 21°   Wind: 5mph
Humidity: 57%   Direction: 50°NE
Pressure: 29.92"   Gusts: NA
Location:  43.8°N, 70.8°W
Report Text: KIZG 191554Z AUTO 05004KT 10SM CLR 02/M06 A2992 RMK AO2 SLP136 T00171061
Loading
Personal Weather Stations






























Interactive Weather Map New forecast layout! Learn more

10-Day Weather Forecast

Advertisements
Track Severe Weather on mobile